Time;durP1;ratioP1;P1;durP2;ratioP2;P2;SDS_P1;SDS_P2;PMS_P1;PMS_P2;Temp;Humidity;BMP_temperature;BMP_pressure;BME280_temperature;BME280_humidity;BME280_pressure;Samples;Min_cycle;Max_cycle;Signal;HPM_P1;HPM_P2
2022/10/09 00:01:52;;;;;;;20.77;6.20;;;;;;;7.08;100.00;102214.69;5042858;28;20500;-83
2022/10/09 00:04:18;;;;;;;14.98;5.85;;;;;;;7.08;100.00;102233.75;5034319;28;20029;-83
2022/10/09 00:06:43;;;;;;;11.50;5.03;;;;;;;7.07;100.00;102233.84;5024713;28;20038;-83
2022/10/09 00:09:09;;;;;;;13.90;5.22;;;;;;;6.90;100.00;102232.69;5057135;28;20033;-83
2022/10/09 00:11:34;;;;;;;13.85;4.45;;;;;;;6.66;100.00;102223.72;5036494;28;20479;-83
2022/10/09 00:14:00;;;;;;;8.98;4.45;;;;;;;6.72;100.00;102226.19;5040330;28;20467;-83
2022/10/09 00:16:27;;;;;;;10.55;4.70;;;;;;;6.69;100.00;102228.13;5039407;28;20042;-83
2022/10/09 00:18:53;;;;;;;8.20;4.38;;;;;;;6.80;100.00;102225.88;5057735;28;20108;-84
2022/10/09 00:21:24;;;;;;;10.13;4.78;;;;;;;6.84;100.00;102235.69;5060197;28;20554;-83
2022/10/09 00:23:52;;;;;;;14.95;4.53;;;;;;;6.90;100.00;102231.81;5042065;28;20120;-83
2022/10/09 00:26:18;;;;;;;13.55;4.22;;;;;;;6.74;100.00;102237.91;5043601;28;20427;-83
2022/10/09 00:28:44;;;;;;;13.68;4.10;;;;;;;6.53;100.00;102230.63;5026743;28;20044;-83
2022/10/09 00:31:10;;;;;;;18.05;5.72;;;;;;;6.58;100.00;102231.31;5061660;28;20420;-83
2022/10/09 00:33:37;;;;;;;12.65;5.43;;;;;;;6.56;100.00;102234.09;5059368;28;20025;-83
2022/10/09 00:36:11;;;;;;;10.02;4.88;;;;;;;6.48;100.00;102219.00;5069383;28;20035;-83
2022/10/09 00:38:37;;;;;;;9.35;4.55;;;;;;;6.32;100.00;102219.63;5047778;28;20029;-83
2022/10/09 00:41:02;;;;;;;8.80;4.68;;;;;;;6.39;100.00;102223.84;5043925;28;20036;-83
2022/10/09 00:43:42;;;;;;;8.70;4.45;;;;;;;6.51;100.00;102230.66;5043006;28;20061;-83
2022/10/09 00:46:19;;;;;;;9.90;4.53;;;;;;;6.54;100.00;102229.66;5059859;28;20025;-83
2022/10/09 00:48:50;;;;;;;10.48;4.25;;;;;;;6.52;100.00;102224.25;5074635;28;20058;-84
2022/10/09 00:51:15;;;;;;;11.25;5.55;;;;;;;6.30;100.00;102220.66;5047377;28;20036;-84
2022/10/09 00:53:41;;;;;;;18.73;8.15;;;;;;;6.53;100.00;102214.28;5059087;28;20037;-83
2022/10/09 00:56:07;;;;;;;31.40;11.75;;;;;;;6.63;100.00;102218.41;5042906;28;20029;-84
2022/10/09 00:58:32;;;;;;;21.67;9.88;;;;;;;6.54;100.00;102225.09;5025970;28;20033;-84
2022/10/09 01:00:58;;;;;;;14.48;6.72;;;;;;;6.54;100.00;102219.66;5042055;28;20056;-83
2022/10/09 01:03:23;;;;;;;17.35;10.05;;;;;;;6.31;100.00;102227.84;5042053;28;20048;-83
2022/10/09 01:06:15;;;;;;;21.20;11.95;;;;;;;6.36;100.00;102229.44;5041302;28;20392;-84
2022/10/09 01:08:50;;;;;;;15.00;9.45;;;;;;;6.40;100.00;102228.38;5058687;28;20063;-84
2022/10/09 01:11:44;;;;;;;16.00;8.40;;;;;;;6.46;100.00;102226.34;5057577;28;20035;-84
2022/10/09 01:14:18;;;;;;;18.15;6.10;;;;;;;6.32;100.00;102230.50;5059682;28;20059;-84
2022/10/09 01:16:52;;;;;;;7.05;4.78;;;;;;;6.38;100.00;102234.84;5044379;28;20040;-84
2022/10/09 01:20:08;;;;;;;7.97;4.78;;;;;;;6.25;100.00;102218.97;5069837;28;20032;-83
2022/10/09 01:23:17;;;;;;;13.73;4.70;;;;;;;6.35;100.00;102224.06;5020823;28;20076;-84
2022/10/09 01:25:51;;;;;;;16.92;6.20;;;;;;;6.27;100.00;102223.47;5065035;28;20047;-84
2022/10/09 01:28:19;;;;;;;15.77;4.35;;;;;;;6.24;100.00;102211.75;5048492;28;20029;-83
2022/10/09 01:30:46;;;;;;;14.50;5.45;;;;;;;6.31;100.00;102217.84;5066227;28;20512;-84
2022/10/09 01:33:14;;;;;;;13.48;4.30;;;;;;;6.29;100.00;102211.56;5066143;28;20040;-83
2022/10/09 01:35:41;;;;;;;6.75;3.90;;;;;;;6.30;100.00;102213.34;5052384;28;20029;-83
2022/10/09 01:38:07;;;;;;;7.55;4.22;;;;;;;6.21;100.00;102213.72;5067102;28;20048;-83
2022/10/09 01:40:35;;;;;;;14.70;5.15;;;;;;;6.02;100.00;102205.41;5029407;28;20087;-84
2022/10/09 01:43:01;;;;;;;7.78;4.35;;;;;;;6.04;100.00;102204.38;5029599;28;20044;-83
2022/10/09 01:45:37;;;;;;;9.38;3.65;;;;;;;6.03;100.00;102202.63;5032708;28;20060;-83
2022/10/09 01:48:03;;;;;;;10.60;4.35;;;;;;;5.92;100.00;102209.34;5065829;28;20033;-82
2022/10/09 01:50:35;;;;;;;12.27;4.35;;;;;;;5.94;100.00;102207.47;5065319;28;20558;-83
2022/10/09 01:53:06;;;;;;;7.90;4.20;;;;;;;5.80;100.00;102200.72;5063004;28;20437;-83
2022/10/09 01:56:00;;;;;;;8.90;3.80;;;;;;;5.77;100.00;102197.22;5066244;28;20533;-84
2022/10/09 01:58:34;;;;;;;9.40;3.97;;;;;;;5.72;100.00;102202.81;5058924;28;20044;-84
2022/10/09 02:01:25;;;;;;;11.27;4.50;;;;;;;5.74;100.00;102200.97;5067337;28;20025;-84
2022/10/09 02:03:53;;;;;;;11.50;4.18;;;;;;;5.78;100.00;102197.16;5048968;28;20039;-84
2022/10/09 02:06:19;;;;;;;11.18;3.97;;;;;;;5.83;100.00;102188.84;5048530;28;20032;-83
2022/10/09 02:08:49;;;;;;;16.27;4.45;;;;;;;5.77;100.00;102178.19;5048463;28;20059;-84
2022/10/09 02:11:15;;;;;;;19.27;6.57;;;;;;;5.87;100.00;102190.50;5065532;28;20111;-84
2022/10/09 02:13:41;;;;;;;13.98;6.97;;;;;;;5.79;100.00;102170.88;5046199;28;20134;-84
2022/10/09 02:16:18;;;;;;;13.60;6.28;;;;;;;5.92;100.00;102184.88;5027590;28;20029;-83
2022/10/09 02:19:00;;;;;;;10.20;3.97;;;;;;;5.79;100.00;102189.88;5046545;28;20033;-83
2022/10/09 02:21:41;;;;;;;7.45;3.92;;;;;;;5.76;100.00;102185.47;5019987;28;20033;-84
2022/10/09 02:24:11;;;;;;;9.98;4.32;;;;;;;5.71;100.00;102179.34;5045775;28;20442;-85
2022/10/09 02:26:37;;;;;;;7.47;3.97;;;;;;;5.75;100.00;102172.81;5045605;28;20057;-85
2022/10/09 02:29:03;;;;;;;8.43;4.15;;;;;;;5.60;100.00;102168.84;5025616;28;20037;-84
2022/10/09 02:31:32;;;;;;;8.13;5.70;;;;;;;5.62;100.00;102163.38;4995350;28;20037;-85
2022/10/09 02:34:01;;;;;;;11.07;4.50;;;;;;;5.56;100.00;102178.06;5016703;28;20480;-85
2022/10/09 02:36:27;;;;;;;10.45;4.85;;;;;;;5.36;100.00;102172.47;5023514;28;20175;-83
2022/10/09 02:38:54;;;;;;;15.32;5.32;;;;;;;5.43;100.00;102174.91;5013458;28;20473;-83
2022/10/09 02:41:20;;;;;;;10.55;4.78;;;;;;;5.56;100.00;102169.94;5040999;28;20049;-84
2022/10/09 02:43:45;;;;;;;10.05;4.43;;;;;;;5.68;100.00;102171.28;5007387;28;20037;-84
2022/10/09 02:46:11;;;;;;;11.07;5.05;;;;;;;5.66;100.00;102173.19;5007886;28;20037;-83
2022/10/09 02:48:36;;;;;;;10.43;4.75;;;;;;;5.69;100.00;102175.78;5031784;28;20068;-83
2022/10/09 02:51:02;;;;;;;14.05;4.68;;;;;;;5.63;100.00;102173.28;5021679;28;20065;-84
2022/10/09 02:53:27;;;;;;;9.95;4.60;;;;;;;5.55;100.00;102167.25;5036671;28;20056;-84
2022/10/09 02:55:53;;;;;;;8.85;4.57;;;;;;;5.54;100.00;102177.22;5032293;28;20052;-84
2022/10/09 02:58:18;;;;;;;9.70;4.57;;;;;;;5.47;100.00;102167.53;5020374;28;20397;-84
2022/10/09 03:00:48;;;;;;;12.90;6.13;;;;;;;5.47;100.00;102167.53;5011852;28;20038;-84
2022/10/09 03:03:14;;;;;;;15.18;5.53;;;;;;;5.41;100.00;102163.22;5016021;28;20030;-84
2022/10/09 03:05:39;;;;;;;10.13;5.15;;;;;;;5.34;100.00;102167.09;5038881;28;20072;-85
2022/10/09 03:08:05;;;;;;;8.98;5.10;;;;;;;5.42;100.00;102159.53;5040009;28;20037;-84
2022/10/09 03:10:31;;;;;;;12.07;5.63;;;;;;;5.56;100.00;102166.31;5040199;28;20033;-84
2022/10/09 03:12:56;;;;;;;8.95;4.82;;;;;;;5.26;100.00;102153.81;5012628;28;20053;-84
2022/10/09 03:15:22;;;;;;;9.52;3.92;;;;;;;5.19;100.00;102162.22;5008731;28;20041;-84
2022/10/09 03:17:47;;;;;;;8.48;4.10;;;;;;;4.93;100.00;102134.16;5003275;28;20065;-82
2022/10/09 03:20:12;;;;;;;12.05;4.00;;;;;;;5.30;100.00;102160.00;5042400;28;20145;-83
2022/10/09 03:22:38;;;;;;;8.35;4.45;;;;;;;5.27;100.00;102155.56;5044621;28;20025;-84
2022/10/09 03:25:04;;;;;;;7.55;4.22;;;;;;;5.19;100.00;102156.78;5047916;28;20120;-84
2022/10/09 03:27:29;;;;;;;7.88;4.30;;;;;;;5.05;100.00;102155.44;5021678;28;20036;-83
2022/10/09 03:29:56;;;;;;;7.53;3.40;;;;;;;5.22;100.00;102152.13;5025402;28;20041;-83
2022/10/09 03:32:21;;;;;;;5.75;3.50;;;;;;;5.28;100.00;102145.56;5021751;28;20040;-84
2022/10/09 03:34:47;;;;;;;10.55;3.30;;;;;;;5.34;100.00;102156.22;5025031;28;20481;-83
2022/10/09 03:37:12;;;;;;;9.45;3.75;;;;;;;5.21;100.00;102152.19;5022187;28;20110;-83
2022/10/09 03:39:37;;;;;;;5.43;3.33;;;;;;;5.12;100.00;102127.13;5001630;28;20136;-83
2022/10/09 03:42:03;;;;;;;5.95;4.22;;;;;;;5.20;100.00;102148.59;5003757;28;20120;-83
2022/10/09 03:44:28;;;;;;;5.22;3.28;;;;;;;5.15;100.00;102150.59;5022413;28;20414;-83
2022/10/09 03:46:54;;;;;;;8.50;3.45;;;;;;;5.03;100.00;102143.75;5047366;28;20099;-83
2022/10/09 03:49:19;;;;;;;5.95;3.10;;;;;;;5.04;100.00;102148.25;5050742;28;20505;-83
2022/10/09 03:51:45;;;;;;;9.02;3.80;;;;;;;5.03;100.00;102138.31;5007200;28;20474;-83
2022/10/09 03:54:10;;;;;;;4.63;3.60;;;;;;;5.02;100.00;102135.66;5033153;28;20048;-83
2022/10/09 03:56:36;;;;;;;3.45;3.15;;;;;;;5.01;100.00;102137.47;5015903;28;20527;-83
2022/10/09 03:59:04;;;;;;;6.45;3.92;;;;;;;5.12;100.00;102143.44;5016124;28;20537;-83
2022/10/09 04:01:30;;;;;;;6.22;3.22;;;;;;;5.03;100.00;102142.84;5007700;28;20025;-82
2022/10/09 04:03:55;;;;;;;4.55;3.47;;;;;;;5.06;100.00;102143.63;5025807;28;20145;-83
2022/10/09 04:06:20;;;;;;;7.68;3.10;;;;;;;4.90;100.00;102143.31;5024796;28;20041;-83
2022/10/09 04:08:46;;;;;;;4.28;3.53;;;;;;;4.86;100.00;102132.59;5042273;28;20033;-82
2022/10/09 04:11:11;;;;;;;6.00;3.70;;;;;;;5.00;100.00;102137.53;4991977;28;20087;-84
2022/10/09 04:13:37;;;;;;;8.10;2.63;;;;;;;4.85;100.00;102128.97;5025370;28;20060;-84
2022/10/09 04:16:02;;;;;;;6.68;2.80;;;;;;;4.81;100.00;102126.44;5043945;28;20072;-83
2022/10/09 04:18:28;;;;;;;8.02;2.58;;;;;;;4.94;100.00;102144.09;5044017;28;20033;-84
2022/10/09 04:20:55;;;;;;;9.35;3.30;;;;;;;4.91;100.00;102138.75;5026842;28;20545;-83
2022/10/09 04:23:24;;;;;;;6.82;2.97;;;;;;;4.96;100.00;102131.34;5042644;28;20572;-83
2022/10/09 04:25:53;;;;;;;4.72;2.85;;;;;;;4.93;100.00;102142.28;5055947;28;20108;-84
2022/10/09 04:28:19;;;;;;;5.85;3.00;;;;;;;4.78;100.00;102149.13;5050658;28;20028;-84
2022/10/09 04:30:45;;;;;;;4.38;3.22;;;;;;;4.74;100.00;102137.50;5069921;28;20403;-84
2022/10/09 04:33:10;;;;;;;3.22;2.72;;;;;;;4.88;100.00;102147.88;5031718;28;20033;-83
2022/10/09 04:35:40;;;;;;;4.18;2.55;;;;;;;4.77;100.00;102122.94;5061477;28;20039;-84
2022/10/09 04:38:06;;;;;;;3.78;2.33;;;;;;;4.73;100.00;102118.56;5059762;28;20048;-82
2022/10/09 04:40:31;;;;;;;3.72;2.80;;;;;;;4.77;100.00;102136.50;5026090;28;20049;-83
2022/10/09 04:42:57;;;;;;;4.53;2.60;;;;;;;4.85;100.00;102139.84;5017712;28;20049;-84
2022/10/09 04:45:22;;;;;;;4.30;2.65;;;;;;;4.62;100.00;102146.03;5031438;28;20033;-84
2022/10/09 04:47:48;;;;;;;3.65;2.63;;;;;;;4.66;100.00;102138.72;5026805;28;20033;-84
2022/10/09 04:50:14;;;;;;;3.85;2.70;;;;;;;4.73;100.00;102140.28;5039211;28;20060;-84
2022/10/09 04:52:39;;;;;;;4.82;2.88;;;;;;;4.53;100.00;102147.25;5052043;28;20096;-84
2022/10/09 04:55:05;;;;;;;4.25;2.97;;;;;;;4.70;100.00;102134.94;5025642;28;20044;-84
2022/10/09 04:57:31;;;;;;;9.98;3.63;;;;;;;4.61;100.00;102136.16;5042893;28;20029;-84
2022/10/09 04:59:56;;;;;;;7.07;3.70;;;;;;;4.72;100.00;102143.91;5039062;28;20033;-84
2022/10/09 05:02:21;;;;;;;4.07;3.65;;;;;;;4.57;100.00;102146.19;5043534;28;20106;-84
2022/10/09 05:04:47;;;;;;;6.15;3.80;;;;;;;4.58;100.00;102125.41;5023868;28;21003;-83
2022/10/09 05:07:12;;;;;;;5.00;3.00;;;;;;;4.67;100.00;102135.03;5059426;28;20651;-83
2022/10/09 05:09:38;;;;;;;4.35;2.65;;;;;;;4.59;100.00;102138.91;5042680;28;20114;-84
2022/10/09 05:12:03;;;;;;;13.50;2.95;;;;;;;4.42;100.00;102119.59;5042107;28;20519;-84
2022/10/09 05:14:29;;;;;;;5.75;3.53;;;;;;;4.51;100.00;102122.00;5058056;28;20084;-83
2022/10/09 05:16:56;;;;;;;4.93;3.65;;;;;;;4.41;100.00;102110.59;5038563;28;20435;-83
2022/10/09 05:19:22;;;;;;;4.97;3.50;;;;;;;4.46;100.00;102117.66;5025936;28;20056;-83
2022/10/09 05:21:47;;;;;;;7.82;3.42;;;;;;;4.46;100.00;102121.28;5025619;28;20033;-83
2022/10/09 05:24:12;;;;;;;3.05;2.72;;;;;;;4.23;100.00;102124.72;5036650;28;20032;-84
2022/10/09 05:26:38;;;;;;;3.85;2.50;;;;;;;4.22;100.00;102118.41;5018418;28;20044;-83
2022/10/09 05:29:03;;;;;;;3.75;3.00;;;;;;;4.20;100.00;102117.59;5041770;28;20036;-84
2022/10/09 05:31:30;;;;;;;7.25;3.00;;;;;;;4.20;100.00;102125.72;5024131;28;20030;-84
2022/10/09 05:33:58;;;;;;;3.22;2.10;;;;;;;4.34;100.00;102118.97;5059362;28;20063;-83
2022/10/09 05:36:24;;;;;;;4.05;2.58;;;;;;;4.31;100.00;102128.09;5042556;28;20078;-84
2022/10/09 05:38:49;;;;;;;7.53;3.40;;;;;;;4.09;100.00;102125.16;5060156;28;20112;-84
2022/10/09 05:41:17;;;;;;;5.15;3.05;;;;;;;4.17;100.00;102125.81;5043127;28;20079;-84
2022/10/09 05:43:45;;;;;;;3.90;2.95;;;;;;;4.23;100.00;102125.63;5043684;28;20044;-84
2022/10/09 05:46:13;;;;;;;2.55;2.35;;;;;;;4.21;100.00;102126.59;5058215;28;20381;-83
2022/10/09 05:48:41;;;;;;;3.25;2.45;;;;;;;4.06;100.00;102130.69;5061201;28;20029;-83
2022/10/09 05:51:12;;;;;;;7.45;2.60;;;;;;;4.12;100.00;102129.63;5043258;28;20029;-83
2022/10/09 05:53:39;;;;;;;7.05;2.72;;;;;;;4.09;100.00;102121.59;5059230;28;20056;-83
2022/10/09 05:56:20;;;;;;;6.15;3.13;;;;;;;4.19;100.00;102109.50;5037891;28;20029;-83
2022/10/09 05:58:54;;;;;;;8.27;3.85;;;;;;;4.19;100.00;102118.50;5030205;28;20495;-82
2022/10/09 06:01:21;;;;;;;7.68;4.65;;;;;;;4.22;100.00;102110.28;5036551;28;20504;-81
2022/10/09 06:03:49;;;;;;;6.78;4.38;;;;;;;4.24;100.00;102116.53;5038815;28;20071;-82
2022/10/09 06:06:16;;;;;;;6.97;4.57;;;;;;;4.23;100.00;102112.06;5059331;28;20122;-83
2022/10/09 06:08:42;;;;;;;6.80;4.60;;;;;;;4.14;100.00;102098.81;5046636;28;20059;-84
2022/10/09 06:11:20;;;;;;;9.18;4.38;;;;;;;4.11;100.00;102104.31;5063278;28;20988;-82
2022/10/09 06:13:46;;;;;;;10.43;4.60;;;;;;;4.25;100.00;102112.03;5054564;28;20036;-82
2022/10/09 06:16:13;;;;;;;5.72;4.65;;;;;;;4.25;100.00;102114.72;5051268;28;20024;-83
2022/10/09 06:18:41;;;;;;;7.75;4.65;;;;;;;4.19;100.00;102115.78;5069171;28;20977;-83
2022/10/09 06:21:06;;;;;;;13.48;4.55;;;;;;;4.21;100.00;102113.94;5058773;28;20056;-83
2022/10/09 06:23:33;;;;;;;11.32;4.70;;;;;;;4.25;100.00;102120.16;5035221;28;20088;-82
2022/10/09 06:26:05;;;;;;;10.65;4.60;;;;;;;4.17;100.00;102120.38;5042719;28;20408;-83
2022/10/09 06:28:31;;;;;;;6.80;4.63;;;;;;;4.26;100.00;102121.91;5081375;28;20036;-81
2022/10/09 06:31:09;;;;;;;6.88;4.65;;;;;;;4.32;100.00;102116.28;5071433;28;20029;-82
2022/10/09 06:33:36;;;;;;;5.63;4.70;;;;;;;4.40;100.00;102118.75;5068729;28;20365;-83
2022/10/09 06:36:05;;;;;;;13.13;6.38;;;;;;;4.60;100.00;102123.50;5053128;28;20112;-82
2022/10/09 06:38:33;;;;;;;12.60;6.47;;;;;;;4.75;100.00;102124.81;5040543;28;20024;-82
2022/10/09 06:41:09;;;;;;;8.98;6.00;;;;;;;4.80;100.00;102114.69;5058613;28;20033;-82
2022/10/09 06:43:35;;;;;;;13.27;6.40;;;;;;;4.91;100.00;102111.63;5058486;28;20033;-82
2022/10/09 06:46:03;;;;;;;12.75;5.97;;;;;;;5.06;100.00;102113.78;5048415;28;20079;-83
2022/10/09 06:48:30;;;;;;;9.40;6.25;;;;;;;5.22;100.00;102121.38;5043708;28;20041;-82
2022/10/09 06:51:10;;;;;;;15.30;6.65;;;;;;;5.32;100.00;102126.41;5055654;28;20052;-82
2022/10/09 06:53:37;;;;;;;11.40;5.95;;;;;;;5.39;100.00;102118.91;5049066;28;20051;-82
2022/10/09 06:56:04;;;;;;;9.32;5.78;;;;;;;5.41;100.00;102121.56;5044640;28;20373;-83
2022/10/09 06:58:30;;;;;;;12.90;5.55;;;;;;;5.55;100.00;102131.94;5045254;28;20436;-82
2022/10/09 07:01:08;;;;;;;15.15;6.55;;;;;;;5.58;100.00;102124.56;5060120;28;20036;-82
2022/10/09 07:03:34;;;;;;;13.05;7.75;;;;;;;5.77;100.00;102122.03;5058849;28;20157;-84
2022/10/09 07:06:15;;;;;;;19.40;7.70;;;;;;;5.87;100.00;102131.59;5039915;28;20097;-84
2022/10/09 07:08:42;;;;;;;16.52;7.30;;;;;;;6.03;100.00;102122.88;5058160;28;20037;-82
2022/10/09 07:11:09;;;;;;;13.05;8.07;;;;;;;6.13;100.00;102135.13;5057011;28;20040;-83
2022/10/09 07:13:35;;;;;;;22.02;9.00;;;;;;;6.23;100.00;102124.78;5037086;28;20076;-82
2022/10/09 07:16:03;;;;;;;24.75;9.63;;;;;;;6.36;100.00;102120.66;5053267;28;20049;-83
2022/10/09 07:18:30;;;;;;;15.25;9.32;;;;;;;6.53;100.00;102117.22;5060121;28;20055;-82
2022/10/09 07:20:58;;;;;;;14.18;7.82;;;;;;;6.82;100.00;102131.41;5048415;28;20033;-83
2022/10/09 07:23:24;;;;;;;24.25;8.07;;;;;;;6.94;100.00;102122.72;5047339;28;20025;-84
2022/10/09 07:25:49;;;;;;;15.52;8.45;;;;;;;7.09;100.00;102121.16;5038352;28;20082;-83
2022/10/09 07:28:15;;;;;;;16.33;7.90;;;;;;;7.23;100.00;102125.09;5043566;28;20041;-82
2022/10/09 07:30:41;;;;;;;12.20;7.43;;;;;;;7.26;100.00;102112.22;5023520;28;20057;-83
2022/10/09 07:33:06;;;;;;;20.90;7.43;;;;;;;7.64;100.00;102119.59;5029518;28;20160;-81
2022/10/09 07:35:32;;;;;;;17.05;7.15;;;;;;;8.02;100.00;102122.41;5038044;28;20388;-81
2022/10/09 07:37:57;;;;;;;13.63;6.53;;;;;;;8.20;100.00;102129.69;5049307;28;20063;-81
2022/10/09 07:40:24;;;;;;;21.98;6.78;;;;;;;8.26;100.00;102128.47;5046303;28;20033;-82
2022/10/09 07:42:50;;;;;;;17.23;6.65;;;;;;;8.33;100.00;102126.34;5020553;28;20025;-82
2022/10/09 07:45:16;;;;;;;15.43;5.78;;;;;;;8.35;100.00;102125.31;5012999;28;20037;-82
2022/10/09 07:47:41;;;;;;;12.70;6.50;;;;;;;8.87;100.00;102135.50;5023479;28;20091;-81
2022/10/09 07:50:07;;;;;;;13.18;5.35;;;;;;;9.04;100.00;102120.94;5022667;28;20068;-82
2022/10/09 07:52:32;;;;;;;17.77;7.30;;;;;;;9.13;100.00;102117.75;5034322;28;20038;-82
2022/10/09 07:54:57;;;;;;;12.55;5.13;;;;;;;9.39;100.00;102123.66;5039851;28;20048;-83
2022/10/09 07:57:23;;;;;;;11.13;5.45;;;;;;;9.75;100.00;102123.50;5057470;28;20036;-82
2022/10/09 07:59:48;;;;;;;17.63;6.28;;;;;;;9.83;100.00;102124.94;5056892;28;20041;-81
2022/10/09 08:02:14;;;;;;;14.27;5.22;;;;;;;9.88;100.00;102123.69;5024164;28;20047;-82
2022/10/09 08:04:39;;;;;;;13.55;5.38;;;;;;;10.25;100.00;102120.75;5023485;28;20029;-81
2022/10/09 08:07:05;;;;;;;16.25;5.10;;;;;;;10.53;100.00;102121.94;5040208;28;20037;-81
2022/10/09 08:09:30;;;;;;;11.50;4.97;;;;;;;10.56;100.00;102117.16;5059380;28;20108;-83
2022/10/09 08:11:57;;;;;;;13.52;5.97;;;;;;;10.56;100.00;102118.97;5018776;28;20128;-82
2022/10/09 08:14:22;;;;;;;17.65;5.53;;;;;;;10.65;100.00;102121.19;5007047;28;20047;-83
2022/10/09 08:16:48;;;;;;;22.23;6.95;;;;;;;10.73;100.00;102118.00;5032047;28;20037;-84
2022/10/09 08:19:13;;;;;;;13.50;5.45;;;;;;;11.06;100.00;102119.69;5040290;28;20060;-83
2022/10/09 08:21:39;;;;;;;20.60;5.72;;;;;;;11.45;100.00;102120.94;5021677;28;20422;-82
2022/10/09 08:24:04;;;;;;;21.13;5.03;;;;;;;11.72;100.00;102129.28;5054726;28;20045;-82
2022/10/09 08:26:30;;;;;;;16.58;5.25;;;;;;;11.97;100.00;102123.16;5056514;28;20033;-83
2022/10/09 08:28:58;;;;;;;13.90;4.75;;;;;;;11.99;100.00;102117.56;5035346;28;20091;-83
2022/10/09 08:31:24;;;;;;;13.85;5.03;;;;;;;12.17;100.00;102123.69;5022987;28;20034;-85
2022/10/09 08:33:52;;;;;;;11.23;4.97;;;;;;;12.64;100.00;102114.16;5043365;28;20464;-83
2022/10/09 08:36:18;;;;;;;12.73;4.18;;;;;;;12.87;100.00;102113.47;5040009;28;20400;-83
2022/10/09 08:38:43;;;;;;;12.32;5.15;;;;;;;12.62;100.00;102100.50;5072454;28;20033;-82
2022/10/09 08:41:12;;;;;;;13.25;4.60;;;;;;;12.87;100.00;102110.72;5025871;28;20481;-83
2022/10/09 08:43:44;;;;;;;19.88;5.20;;;;;;;12.96;100.00;102105.59;5085790;28;20043;-83
2022/10/09 08:46:33;;;;;;;15.48;5.10;;;;;;;12.92;100.00;102102.19;5044274;28;20082;-83
2022/10/09 08:49:01;;;;;;;22.63;6.00;;;;;;;13.05;100.00;102100.34;5061576;28;20530;-83
2022/10/09 08:51:34;;;;;;;11.15;3.75;;;;;;;13.48;100.00;102099.19;5040549;28;20540;-83
2022/10/09 08:54:02;;;;;;;11.82;4.30;;;;;;;13.39;100.00;102091.59;5040485;28;20064;-83
2022/10/09 08:56:29;;;;;;;9.95;3.90;;;;;;;13.64;100.00;102081.56;5064327;28;20063;-82
2022/10/09 08:58:55;;;;;;;11.00;3.42;;;;;;;13.78;100.00;102085.06;5042642;28;20509;-83
2022/10/09 09:01:30;;;;;;;14.48;4.03;;;;;;;13.59;100.00;102076.41;5051084;28;20033;-83
2022/10/09 09:04:23;;;;;;;11.60;3.53;;;;;;;14.15;100.00;102068.59;5060931;28;20059;-83
2022/10/09 09:07:25;;;;;;;15.68;3.67;;;;;;;14.20;100.00;102056.34;5057228;28;20036;-82
2022/10/09 09:09:56;;;;;;;9.05;3.58;;;;;;;15.02;100.00;102075.81;5058996;28;20028;-82
2022/10/09 09:12:28;;;;;;;13.43;3.58;;;;;;;14.59;100.00;102057.97;5060465;28;20123;-81
2022/10/09 09:14:56;;;;;;;10.25;3.53;;;;;;;14.73;100.00;102058.81;5038733;28;20515;-82
2022/10/09 09:17:44;;;;;;;14.80;3.47;;;;;;;14.95;100.00;102064.38;5053597;28;20041;-82
2022/10/09 09:20:29;;;;;;;9.70;3.25;;;;;;;14.81;100.00;102056.31;5052993;28;20085;-83
2022/10/09 09:22:57;;;;;;;11.35;3.30;;;;;;;14.85;100.00;102058.69;5058414;28;20044;-82
2022/10/09 09:25:33;;;;;;;8.75;3.00;;;;;;;15.03;100.00;102045.34;5057097;28;20044;-82
2022/10/09 09:28:12;;;;;;;11.18;3.45;;;;;;;15.10;100.00;102042.09;5074601;28;20472;-84
2022/10/09 09:30:45;;;;;;;13.20;3.00;;;;;;;15.18;100.00;102039.63;5059533;28;20096;-82
2022/10/09 09:33:16;;;;;;;8.57;2.53;;;;;;;15.72;100.00;102032.50;5064577;28;20068;-83
2022/10/09 09:35:48;;;;;;;8.30;2.65;;;;;;;15.79;100.00;102050.38;5062989;28;20080;-83
2022/10/09 09:38:14;;;;;;;13.27;2.85;;;;;;;14.95;100.00;102042.31;5058269;28;20361;-83
2022/10/09 09:40:43;;;;;;;9.77;3.33;;;;;;;15.52;100.00;102029.50;5070592;28;20056;-83
2022/10/09 09:43:18;;;;;;;7.53;2.47;;;;;;;16.01;100.00;102032.03;5046283;28;20024;-83
2022/10/09 09:45:44;;;;;;;6.28;2.78;;;;;;;16.35;100.00;102028.16;5029744;28;20037;-84
2022/10/09 09:48:17;;;;;;;7.63;2.70;;;;;;;16.23;100.00;102026.44;5043255;28;20034;-83
2022/10/09 09:50:44;;;;;;;8.52;2.63;;;;;;;16.15;100.00;102026.19;5052230;28;20091;-82
2022/10/09 09:53:26;;;;;;;8.80;2.72;;;;;;;16.07;100.00;102010.28;5066340;28;20033;-83
2022/10/09 09:55:52;;;;;;;8.32;2.65;;;;;;;16.14;100.00;102022.56;5063369;28;20110;-83
2022/10/09 09:58:19;;;;;;;7.93;2.10;;;;;;;16.26;100.00;102020.63;5040919;28;20087;-83
2022/10/09 10:00:56;;;;;;;6.63;2.15;;;;;;;16.42;100.00;102011.94;5062266;28;20541;-83
2022/10/09 10:03:23;;;;;;;12.15;2.30;;;;;;;15.94;100.00;101991.09;5058508;28;20040;-83
2022/10/09 10:05:48;;;;;;;10.43;2.30;;;;;;;15.92;100.00;101998.63;5058470;28;20071;-83
2022/10/09 10:08:31;;;;;;;9.48;2.65;;;;;;;16.44;100.00;101987.78;5061476;28;20420;-83
2022/10/09 10:11:00;;;;;;;11.70;2.42;;;;;;;16.27;100.00;101992.00;5042238;28;20444;-83
2022/10/09 10:13:45;;;;;;;7.78;2.00;;;;;;;16.30;100.00;101996.41;5044236;28;20502;-84
2022/10/09 10:16:21;;;;;;;6.55;1.90;;;;;;;16.12;100.00;101988.66;5060570;28;20538;-83
2022/10/09 10:18:46;;;;;;;9.63;2.05;;;;;;;16.01;100.00;101985.94;5061238;28;20041;-83
2022/10/09 10:21:17;;;;;;;4.45;2.17;;;;;;;16.29;100.00;101987.22;5045387;28;20090;-83
2022/10/09 10:23:54;;;;;;;6.60;1.70;;;;;;;16.83;100.00;101978.94;5039979;28;20086;-84
2022/10/09 10:26:33;;;;;;;6.20;2.25;;;;;;;16.25;100.00;101995.91;5061151;28;20033;-84
2022/10/09 10:29:11;;;;;;;5.30;1.88;;;;;;;16.50;100.00;101990.03;5043121;28;20029;-83
2022/10/09 10:31:36;;;;;;;6.10;1.60;;;;;;;16.53;100.00;101975.94;5045956;28;20067;-83
2022/10/09 10:34:06;;;;;;;6.82;1.58;;;;;;;17.24;100.00;101968.88;5060734;28;20088;-84
2022/10/09 10:36:32;;;;;;;5.85;2.13;;;;;;;16.83;100.00;101965.09;5060805;28;20033;-83
2022/10/09 10:39:11;;;;;;;3.50;1.35;;;;;;;16.62;100.00;101965.97;5042810;28;20370;-83
2022/10/09 10:41:44;;;;;;;13.52;1.75;;;;;;;16.76;100.00;101959.25;5066997;28;20035;-83
2022/10/09 10:44:32;;;;;;;7.65;1.50;;;;;;;16.76;100.00;101958.34;5057199;28;20167;-83
2022/10/09 10:47:05;;;;;;;4.68;1.60;;;;;;;16.70;100.00;101954.25;5046094;28;20037;-83
2022/10/09 10:49:31;;;;;;;18.15;2.17;;;;;;;16.97;100.00;101945.44;5061440;28;20032;-83
2022/10/09 10:52:07;;;;;;;8.70;2.13;;;;;;;16.99;100.00;101939.78;5053717;28;20034;-82
2022/10/09 10:54:38;;;;;;;5.90;1.50;;;;;;;16.71;100.00;101934.75;5058330;28;20040;-83
2022/10/09 10:57:11;;;;;;;6.90;1.58;;;;;;;17.05;100.00;101942.88;5059325;28;20520;-83
2022/10/09 10:59:59;;;;;;;5.70;1.40;;;;;;;17.00;100.00;101927.66;5061492;28;20119;-82
2022/10/09 11:02:46;;;;;;;6.85;1.50;;;;;;;17.09;100.00;101932.38;5062081;28;20044;-82
2022/10/09 11:05:36;;;;;;;4.63;1.70;;;;;;;16.69;100.00;101925.72;5055208;28;20481;-80
2022/10/09 11:08:26;;;;;;;6.93;1.48;;;;;;;17.22;100.00;101919.19;5061842;28;20033;-80
2022/10/09 11:11:07;;;;;;;4.93;1.58;;;;;;;16.73;100.00;101927.19;5059908;28;20047;-82
2022/10/09 11:14:07;;;;;;;7.82;1.58;;;;;;;16.62;100.00;101913.41;5061697;28;20067;-79
2022/10/09 11:16:38;;;;;;;7.28;1.73;;;;;;;17.03;100.00;101906.13;5071547;28;20044;-80
2022/10/09 11:19:03;;;;;;;6.68;1.67;;;;;;;16.95;100.00;101910.59;5057404;28;20029;-79
2022/10/09 11:21:44;;;;;;;12.15;1.70;;;;;;;17.12;100.00;101909.97;5054881;28;20090;-79
2022/10/09 11:24:47;;;;;;;6.82;1.65;;;;;;;16.99;100.00;101898.25;5047632;28;20036;-80
2022/10/09 11:27:37;;;;;;;10.23;1.90;;;;;;;17.03;100.00;101895.06;5054861;28;20041;-81
2022/10/09 11:30:07;;;;;;;7.30;1.45;;;;;;;16.85;100.00;101897.59;5059001;28;20029;-81
2022/10/09 11:32:58;;;;;;;6.78;1.67;;;;;;;16.64;100.00;101888.41;5057263;28;20035;-80